Thursday, September 20, 2018, 6:20 PM EDT
Back to Local

KBID, Block Island, Block Island State Airport

Location: Block Island, RI, United States Lat: 41.167
Local Time: 6:20 PM EDT (22:20 GMT) Lon: -71.567
Time Zone: US/Eastern Elev: 108 ft

Show me the last for .
Show Coded

Time T Td Feel RH Dir Speed Gust Alt SLP Vis Weather Sky Remarks
2018-09-20 17:56 64 58 - 80 70° 8 - 30.25 30.26 10 FEW016 SCT048 None
2018-09-20 16:56 65 60 - 84 60° 12 16 30.23 30.24 10 SCT013 SCT018 None
2018-09-20 16:45 66 61 - 82 60° 9 - 30.24 - 10 BKN015 None
2018-09-20 15:56 67 60 - 78 60° 9 - 30.24 30.25 10 FEW017 None
2018-09-20 14:56 68 60 - 75 50° 10 17 30.23 30.24 10 FEW041 None
2018-09-20 12:56 68 60 - 75 30° 14 21 30.24 30.25 10 FEW030 SCT035 BKN055 None
2018-09-20 12:16 66 59 - 77 30° 14 18 30.25 - 10 FEW018 OVC031 None
2018-09-20 11:56 66 60 - 81 30° 14 17 30.24 30.25 10 FEW018 BKN027 OVC033 None
2018-09-20 11:17 66 59 - 77 40° 12 18 30.24 - 10 FEW016 OVC031 None
2018-09-20 10:56 65 60 - 84 40° 10 17 30.24 30.25 10 OVC014 None
2018-09-20 09:56 64 60 - 86 30° 13 18 30.21 30.22 10 BKN012 OVC047 None
2018-09-20 08:56 63 59 - 86 30° 10 - 30.19 30.20 10 OVC012 None
2018-09-20 07:56 62 58 - 86 30° 13 20 30.17 30.18 10 OVC012 6-hr Min Temp (8am): 60.1°F
6-hr Max Temp (8am): 62.1°F
2018-09-20 06:56 61 58 - 89 30° 10 18 30.15 30.16 10 BKN012 None
2018-09-20 06:19 61 57 - 87 30° 13 18 30.13 - 10 BKN014 None
2018-09-20 05:56 60 58 - 92 20° 7 - 30.13 30.14 10 FEW014 None
2018-09-20 05:47 61 57 - 87 20° 9 - 30.13 - 10 SCT014 None
2018-09-20 05:03 61 57 - 87 10° 8 - 30.12 - 10 OVC014 None
2018-09-20 04:56 61 58 - 89 20° 9 - 30.12 30.13 10 BKN016 OVC020 None
2018-09-20 03:56 62 58 - 86 30° 13 22 30.10 30.11 10 BKN016 None
2018-09-20 03:21 63 57 - 82 30° 15 23 30.10 - 10 BKN016 None
2018-09-20 02:56 62 57 - 83 40° 16 24 30.09 30.09 10 FEW018 None
2018-09-20 01:56 61 56 - 83 50° 14 25 30.08 30.09 10 FEW016 6-hr Min Temp (2am): 61.0°F
6-hr Max Temp (2am): 63.0°F
2018-09-20 00:56 61 56 - 83 30° 13 20 30.09 30.10 10 FEW018 None
2018-09-20 00:40 61 55 - 82 30° 14 21 30.09 - 10 SCT018 BKN050 None
2018-09-20 00:33 61 55 - 82 30° 15 21 30.09 - 10 BKN018 BKN050 None
2018-09-20 00:17 61 55 - 82 40° 13 20 30.09 - 10 SCT018 None
2018-09-19 23:56 61 56 - 83 40° 12 22 30.08 30.09 10 BKN020 24-hr Min Temp (12am): 61.0°F
24-hr Max Temp (12am): 69.1°F
2018-09-19 22:56 62 57 - 83 30° 12 22 30.07 30.08 10 OVC020 None
2018-09-19 21:56 61 56 - 83 40° 15 24 30.06 30.07 10 OVC018 None
2018-09-19 21:39 63 55 - 77 40° 15 23 30.06 - 10 OVC016 None
2018-09-19 20:56 62 57 - 83 40° 15 26 30.04 30.05 10 OVC014 None
2018-09-19 20:11 63 59 - 88 50° 15 22 30.03 - 10 OVC014 None
2018-09-19 19:56 63 59 - 86 60° 14 - 30.02 30.03 10 OVC016 6-hr Min Temp (8pm): 63.0°F
6-hr Max Temp (8pm): 69.1°F
2018-09-19 18:56 64 59 - 83 40° 14 18 30.01 30.02 10 OVC016 None

Support USWX by starting your Amazon purchase here.